Flight Track Log - Related Links

Times and Time Zones

All times are in EDT time to prevent confusion due to time zone crossing. See the WAV761 flight status page for this flight to view local times or setup timezone preferences in your user account.

Time Position Orientation Groundspeed Altitude Reporting Facility
EDT Latitude Longitude Course Direction KTS MPH feet Rate Location/Type
Mon 09:57:04 PM 65.1167 -151.6500 98° East 120 138 6,600  Level Anchorage Center
Mon 09:58:04 PM 65.1000 -151.5500 112° Southeast 180 207 7,000 200 Climbing Anchorage Center
Mon 09:59:04 PM 65.0833 -151.4500 112° Southeast 160 184 7,000  Level Anchorage Center
Mon 10:00:05 PM 65.0833 -151.3500 90° East 150 173 7,000  Level Anchorage Center
Mon 10:01:00 PM 65.1256 -151.5766 97° East  Level FlightAware Approximate
Mon 10:01:05 PM 65.0667 -151.2333 109° East 180 207 7,000  Level Anchorage Center
Mon 10:02:00 PM 65.1197 -151.4711 98° East  Level FlightAware Approximate
Mon 10:02:05 PM 65.0667 -151.1167 90° East 170 196 7,000  Level Anchorage Center
Mon 10:03:06 PM 65.0500 -151.0167 112° Southeast 170 196 7,000  Level Anchorage Center
Mon 10:04:06 PM 65.0500 -150.9000 90° East 170 196 7,000  Level Anchorage Center
Mon 10:05:07 PM 65.0500 -150.8000 90° East 160 184 7,000  Level Anchorage Center
Mon 10:06:07 PM 65.0333 -150.6833 109° East 170 196 7,000  Level Anchorage Center
Mon 10:07:07 PM 65.0167 -150.5667 109° East 170 196 7,000  Level Anchorage Center
Mon 10:08:07 PM 65.0167 -150.4667 90° East 170 196 7,000  Level Anchorage Center
Mon 10:09:07 PM 65.0167 -150.3500 90° East 170 196 7,000  Level Anchorage Center
Mon 10:10:08 PM 65.0000 -150.2333 109° East 170 196 7,000  Level Anchorage Center
Mon 10:11:08 PM 64.9833 -150.1333 111° Southeast 170 196 7,000  Level Anchorage Center
Mon 10:12:08 PM 64.9833 -150.0167 90° East 180 207 7,000  Level Anchorage Center
Mon 10:13:09 PM 64.9667 -149.9167 111° Southeast 160 184 7,000  Level Anchorage Center
Mon 10:14:09 PM 64.9667 -149.8000 90° East 170 196 7,000  Level Anchorage Center
Mon 10:15:10 PM 64.9667 -149.7000 90° East 150 173 7,000  Level Anchorage Center
Mon 10:16:10 PM 64.9500 -149.5833 109° East 180 207 7,000  Level Anchorage Center
Mon 10:18:00 PM 64.9379 -149.3916 98° East  Level FlightAware Approximate
Mon 10:25:00 PM 64.8853 -148.6633 108° East  Level FlightAware Approximate
Mon 10:26:00 PM 64.8710 -148.5633 109° East  Level FlightAware Approximate
Mon 10:27:00 PM 64.8604 -148.4611 101° East  Level FlightAware Approximate
Mon 10:28:00 PM 64.8514 -148.3578 102° East  Level FlightAware Approximate
Mon 10:29:00 PM 64.8424 -148.2546 102° East  Level FlightAware Approximate
Mon 10:30:00 PM 64.8332 -148.1515 102° East  Level FlightAware Approximate
Mon 10:31:00 PM 64.8240 -148.0485 102° East  Level FlightAware Approximate
Mon 10:32:00 PM 64.8137 -147.9461 109° East  Level FlightAware Approximate
Mon 10:33:00 PM 64.8000 -147.8500 109° East  Level FlightAware Approximate
Mon 10:34:00 PM 64.8151 -147.8564 109° East  Level Estimated
Mon 10:35:00 PM 64.8151 -147.8564 109° East  Level Estimated
Mon 10:36:00 PM 64.8151 -147.8564 109° East  Level Estimated
Mon 10:37:00 PM 64.8151 -147.8564 109° East  Level Estimated
Mon 10:38:00 PM 64.8151 -147.8564 109° East  Level Estimated
Mon 10:39:00 PM 64.8151 -147.8564 109° East  Level Estimated
Mon 10:40:00 PM 64.8151 -147.8564 109° East  Level Estimated
Mon 10:41:00 PM 64.8151 -147.8564 109° East  Level Estimated
Mon 10:42:00 PM 64.8151 -147.8564 109° East  Level Estimated
Mon 10:43:00 PM 64.8151 -147.8564 109° East  Level Estimated
Mon 10:44:00 PM 64.8151 -147.8564 109° East  Level Estimated
Mon 10:45:00 PM 64.8151 -147.8564 109° East  Level Estimated
Mon 10:46:00 PM 64.8151 -147.8564 109° East  Level Estimated
Mon 10:47:00 PM 64.8151 -147.8564 109° East  Level Estimated
Mon 10:48:00 PM 64.8151 -147.8564 109° East  Level Estimated
Mon 10:49:00 PM 64.8151 -147.8564 109° East  Level Estimated
Mon 10:50:00 PM 64.8151 -147.8564 109° East  Level Estimated
Mon 10:51:00 PM 64.8151 -147.8564 109° East  Level Estimated
Mon 10:52:00 PM 64.8151 -147.8564 109° East  Level Estimated

Login

Don't have an account? Register now (free) for customized features, flight alerts, and more!